sensor_id;sensor_type;location;lat;lon;timestamp;P1;durP1;ratioP1;P2;durP2;ratioP2
26036;SDS011;13810;48.376;10.944;2022-12-22T00:00:15;9.32;;;4.80;;
26036;SDS011;13810;48.376;10.944;2022-12-22T00:01:07;10.27;;;4.97;;
26036;SDS011;13810;48.376;10.944;2022-12-22T00:01:59;8.07;;;4.93;;
26036;SDS011;13810;48.376;10.944;2022-12-22T00:02:50;8.95;;;4.57;;
26036;SDS011;13810;48.376;10.944;2022-12-22T00:03:39;11.00;;;5.35;;
26036;SDS011;13810;48.376;10.944;2022-12-22T00:04:28;10.38;;;5.43;;
26036;SDS011;13810;48.376;10.944;2022-12-22T00:05:19;11.45;;;4.90;;
26036;SDS011;13810;48.376;10.944;2022-12-22T00:06:09;7.60;;;5.00;;
26036;SDS011;13810;48.376;10.944;2022-12-22T00:06:58;15.65;;;5.60;;
26036;SDS011;13810;48.376;10.944;2022-12-22T00:07:47;9.13;;;4.72;;
26036;SDS011;13810;48.376;10.944;2022-12-22T00:08:36;10.15;;;5.25;;
26036;SDS011;13810;48.376;10.944;2022-12-22T00:09:25;9.27;;;5.40;;
26036;SDS011;13810;48.376;10.944;2022-12-22T00:10:15;11.15;;;5.65;;
26036;SDS011;13810;48.376;10.944;2022-12-22T00:11:05;9.30;;;5.18;;
26036;SDS011;13810;48.376;10.944;2022-12-22T00:11:59;10.13;;;5.40;;
26036;SDS011;13810;48.376;10.944;2022-12-22T00:12:48;9.88;;;5.28;;
26036;SDS011;13810;48.376;10.944;2022-12-22T00:13:38;12.48;;;5.22;;
26036;SDS011;13810;48.376;10.944;2022-12-22T00:14:29;8.35;;;4.68;;
26036;SDS011;13810;48.376;10.944;2022-12-22T00:15:18;7.47;;;4.63;;
26036;SDS011;13810;48.376;10.944;2022-12-22T00:16:08;9.40;;;5.35;;
26036;SDS011;13810;48.376;10.944;2022-12-22T00:16:58;9.02;;;4.97;;
26036;SDS011;13810;48.376;10.944;2022-12-22T00:17:50;9.13;;;4.30;;
26036;SDS011;13810;48.376;10.944;2022-12-22T00:18:39;7.13;;;4.07;;
26036;SDS011;13810;48.376;10.944;2022-12-22T00:19:28;7.95;;;4.53;;
26036;SDS011;13810;48.376;10.944;2022-12-22T00:20:19;8.60;;;3.70;;
26036;SDS011;13810;48.376;10.944;2022-12-22T00:21:10;7.53;;;4.55;;
26036;SDS011;13810;48.376;10.944;2022-12-22T00:22:01;7.55;;;4.00;;
26036;SDS011;13810;48.376;10.944;2022-12-22T00:22:55;5.05;;;3.47;;
26036;SDS011;13810;48.376;10.944;2022-12-22T00:23:44;5.55;;;3.78;;
26036;SDS011;13810;48.376;10.944;2022-12-22T00:24:33;7.10;;;4.40;;
26036;SDS011;13810;48.376;10.944;2022-12-22T00:25:23;11.13;;;4.10;;
26036;SDS011;13810;48.376;10.944;2022-12-22T00:26:12;6.57;;;3.95;;
26036;SDS011;13810;48.376;10.944;2022-12-22T00:27:01;8.60;;;4.25;;
26036;SDS011;13810;48.376;10.944;2022-12-22T00:27:50;5.68;;;3.85;;
26036;SDS011;13810;48.376;10.944;2022-12-22T00:28:39;7.82;;;4.50;;
26036;SDS011;13810;48.376;10.944;2022-12-22T00:29:34;6.85;;;4.07;;
26036;SDS011;13810;48.376;10.944;2022-12-22T00:30:26;5.15;;;3.22;;
26036;SDS011;13810;48.376;10.944;2022-12-22T00:31:15;6.68;;;3.97;;
26036;SDS011;13810;48.376;10.944;2022-12-22T00:32:07;6.50;;;3.40;;
26036;SDS011;13810;48.376;10.944;2022-12-22T00:33:01;6.38;;;3.45;;
26036;SDS011;13810;48.376;10.944;2022-12-22T00:33:53;10.77;;;3.83;;
26036;SDS011;13810;48.376;10.944;2022-12-22T00:34:41;7.10;;;3.42;;
26036;SDS011;13810;48.376;10.944;2022-12-22T00:35:30;9.48;;;4.10;;
26036;SDS011;13810;48.376;10.944;2022-12-22T00:36:20;11.65;;;4.00;;
26036;SDS011;13810;48.376;10.944;2022-12-22T00:37:12;7.28;;;3.33;;
26036;SDS011;13810;48.376;10.944;2022-12-22T00:38:06;7.13;;;4.10;;
26036;SDS011;13810;48.376;10.944;2022-12-22T00:39:07;6.75;;;4.22;;
26036;SDS011;13810;48.376;10.944;2022-12-22T00:40:01;6.40;;;3.33;;
26036;SDS011;13810;48.376;10.944;2022-12-22T00:40:56;5.40;;;3.53;;
26036;SDS011;13810;48.376;10.944;2022-12-22T00:41:45;6.45;;;3.80;;
26036;SDS011;13810;48.376;10.944;2022-12-22T00:42:34;6.00;;;3.65;;
26036;SDS011;13810;48.376;10.944;2022-12-22T00:43:23;5.30;;;3.40;;
26036;SDS011;13810;48.376;10.944;2022-12-22T00:44:12;7.35;;;4.07;;
26036;SDS011;13810;48.376;10.944;2022-12-22T00:45:02;6.93;;;3.63;;
26036;SDS011;13810;48.376;10.944;2022-12-22T00:45:51;6.82;;;3.97;;
26036;SDS011;13810;48.376;10.944;2022-12-22T00:46:41;6.63;;;4.28;;
26036;SDS011;13810;48.376;10.944;2022-12-22T00:47:33;6.22;;;3.42;;
26036;SDS011;13810;48.376;10.944;2022-12-22T00:48:24;6.95;;;3.83;;
26036;SDS011;13810;48.376;10.944;2022-12-22T00:49:14;6.13;;;3.00;;
26036;SDS011;13810;48.376;10.944;2022-12-22T00:50:04;6.05;;;3.33;;
26036;SDS011;13810;48.376;10.944;2022-12-22T00:50:55;6.00;;;4.07;;
26036;SDS011;13810;48.376;10.944;2022-12-22T00:51:44;7.32;;;4.13;;
26036;SDS011;13810;48.376;10.944;2022-12-22T00:52:33;9.15;;;4.20;;
26036;SDS011;13810;48.376;10.944;2022-12-22T00:53:23;5.32;;;3.17;;
26036;SDS011;13810;48.376;10.944;2022-12-22T00:54:13;5.88;;;3.17;;
26036;SDS011;13810;48.376;10.944;2022-12-22T00:55:13;6.05;;;3.42;;
26036;SDS011;13810;48.376;10.944;2022-12-22T00:56:04;7.28;;;3.17;;
26036;SDS011;13810;48.376;10.944;2022-12-22T00:56:54;6.70;;;3.83;;
26036;SDS011;13810;48.376;10.944;2022-12-22T00:57:43;7.32;;;3.60;;
26036;SDS011;13810;48.376;10.944;2022-12-22T00:58:33;4.15;;;3.00;;
26036;SDS011;13810;48.376;10.944;2022-12-22T00:59:23;3.85;;;2.92;;
26036;SDS011;13810;48.376;10.944;2022-12-22T01:00:14;5.03;;;3.53;;
26036;SDS011;13810;48.376;10.944;2022-12-22T01:01:05;5.90;;;3.40;;
26036;SDS011;13810;48.376;10.944;2022-12-22T01:01:54;6.05;;;3.92;;
26036;SDS011;13810;48.376;10.944;2022-12-22T01:02:43;6.68;;;4.22;;
26036;SDS011;13810;48.376;10.944;2022-12-22T01:03:32;4.05;;;2.72;;
26036;SDS011;13810;48.376;10.944;2022-12-22T01:04:21;6.93;;;3.70;;
26036;SDS011;13810;48.376;10.944;2022-12-22T01:05:11;6.85;;;3.92;;
26036;SDS011;13810;48.376;10.944;2022-12-22T01:06:01;5.53;;;3.58;;
26036;SDS011;13810;48.376;10.944;2022-12-22T01:06:50;7.35;;;3.35;;
26036;SDS011;13810;48.376;10.944;2022-12-22T01:07:39;5.10;;;3.15;;
26036;SDS011;13810;48.376;10.944;2022-12-22T01:08:29;9.48;;;3.55;;
26036;SDS011;13810;48.376;10.944;2022-12-22T01:09:18;8.35;;;3.85;;
26036;SDS011;13810;48.376;10.944;2022-12-22T01:10:11;4.93;;;2.75;;
26036;SDS011;13810;48.376;10.944;2022-12-22T01:11:01;11.23;;;3.35;;
26036;SDS011;13810;48.376;10.944;2022-12-22T01:11:50;6.85;;;3.20;;
26036;SDS011;13810;48.376;10.944;2022-12-22T01:12:40;6.00;;;3.28;;
26036;SDS011;13810;48.376;10.944;2022-12-22T01:13:30;4.60;;;3.03;;
26036;SDS011;13810;48.376;10.944;2022-12-22T01:14:20;4.63;;;3.20;;
26036;SDS011;13810;48.376;10.944;2022-12-22T01:15:18;8.38;;;3.00;;
26036;SDS011;13810;48.376;10.944;2022-12-22T01:16:09;5.07;;;3.00;;
26036;SDS011;13810;48.376;10.944;2022-12-22T01:17:00;7.63;;;3.45;;
26036;SDS011;13810;48.376;10.944;2022-12-22T01:17:49;6.50;;;3.42;;
26036;SDS011;13810;48.376;10.944;2022-12-22T01:18:39;8.10;;;3.50;;
26036;SDS011;13810;48.376;10.944;2022-12-22T01:19:28;3.03;;;2.47;;
26036;SDS011;13810;48.376;10.944;2022-12-22T01:20:17;6.10;;;3.38;;
26036;SDS011;13810;48.376;10.944;2022-12-22T01:21:07;6.65;;;3.10;;
26036;SDS011;13810;48.376;10.944;2022-12-22T01:21:57;7.50;;;3.33;;
26036;SDS011;13810;48.376;10.944;2022-12-22T01:22:47;5.13;;;3.17;;
26036;SDS011;13810;48.376;10.944;2022-12-22T01:23:36;3.60;;;2.75;;
26036;SDS011;13810;48.376;10.944;2022-12-22T01:24:28;5.38;;;3.10;;
26036;SDS011;13810;48.376;10.944;2022-12-22T01:25:18;5.03;;;2.70;;
26036;SDS011;13810;48.376;10.944;2022-12-22T01:26:09;5.05;;;2.92;;
26036;SDS011;13810;48.376;10.944;2022-12-22T01:26:59;5.28;;;3.10;;
26036;SDS011;13810;48.376;10.944;2022-12-22T01:27:48;8.40;;;3.90;;
26036;SDS011;13810;48.376;10.944;2022-12-22T01:28:38;6.90;;;3.85;;
26036;SDS011;13810;48.376;10.944;2022-12-22T01:29:27;5.43;;;3.75;;
26036;SDS011;13810;48.376;10.944;2022-12-22T01:30:16;4.35;;;3.22;;
26036;SDS011;13810;48.376;10.944;2022-12-22T01:31:48;5.47;;;3.50;;
26036;SDS011;13810;48.376;10.944;2022-12-22T01:32:19;4.43;;;2.90;;
26036;SDS011;13810;48.376;10.944;2022-12-22T01:33:11;5.43;;;3.15;;
26036;SDS011;13810;48.376;10.944;2022-12-22T01:34:01;5.93;;;3.22;;
26036;SDS011;13810;48.376;10.944;2022-12-22T01:34:50;3.78;;;2.90;;
26036;SDS011;13810;48.376;10.944;2022-12-22T01:35:40;6.00;;;3.63;;
26036;SDS011;13810;48.376;10.944;2022-12-22T01:36:29;5.38;;;3.25;;
26036;SDS011;13810;48.376;10.944;2022-12-22T01:37:18;4.90;;;2.90;;
26036;SDS011;13810;48.376;10.944;2022-12-22T01:38:07;8.93;;;3.97;;
26036;SDS011;13810;48.376;10.944;2022-12-22T01:38:56;5.60;;;3.25;;
26036;SDS011;13810;48.376;10.944;2022-12-22T01:39:46;6.43;;;3.40;;
26036;SDS011;13810;48.376;10.944;2022-12-22T01:40:35;6.55;;;4.03;;
26036;SDS011;13810;48.376;10.944;2022-12-22T01:41:24;5.50;;;3.55;;
26036;SDS011;13810;48.376;10.944;2022-12-22T01:42:14;9.90;;;3.83;;
26036;SDS011;13810;48.376;10.944;2022-12-22T01:44:22;7.20;;;3.63;;
26036;SDS011;13810;48.376;10.944;2022-12-22T01:45:20;8.40;;;3.58;;
26036;SDS011;13810;48.376;10.944;2022-12-22T01:46:25;7.70;;;2.70;;
26036;SDS011;13810;48.376;10.944;2022-12-22T01:48:19;6.45;;;3.53;;
26036;SDS011;13810;48.376;10.944;2022-12-22T01:49:12;11.40;;;4.35;;
26036;SDS011;13810;48.376;10.944;2022-12-22T01:50:06;10.60;;;4.18;;
26036;SDS011;13810;48.376;10.944;2022-12-22T01:50:56;5.90;;;3.90;;
26036;SDS011;13810;48.376;10.944;2022-12-22T01:51:46;10.05;;;4.53;;
26036;SDS011;13810;48.376;10.944;2022-12-22T01:52:35;8.75;;;5.03;;
26036;SDS011;13810;48.376;10.944;2022-12-22T01:53:25;9.70;;;5.15;;
26036;SDS011;13810;48.376;10.944;2022-12-22T01:54:16;13.05;;;4.70;;
26036;SDS011;13810;48.376;10.944;2022-12-22T01:55:06;6.18;;;4.15;;
26036;SDS011;13810;48.376;10.944;2022-12-22T01:55:59;22.55;;;11.85;;
26036;SDS011;13810;48.376;10.944;2022-12-22T01:56:49;20.00;;;9.25;;
26036;SDS011;13810;48.376;10.944;2022-12-22T01:57:38;19.92;;;10.77;;
26036;SDS011;13810;48.376;10.944;2022-12-22T01:58:28;9.77;;;4.43;;
26036;SDS011;13810;48.376;10.944;2022-12-22T01:59:22;9.63;;;3.95;;
26036;SDS011;13810;48.376;10.944;2022-12-22T02:00:12;9.18;;;5.40;;
26036;SDS011;13810;48.376;10.944;2022-12-22T02:01:01;10.32;;;5.00;;
26036;SDS011;13810;48.376;10.944;2022-12-22T02:01:50;7.15;;;3.70;;
26036;SDS011;13810;48.376;10.944;2022-12-22T02:02:39;6.78;;;4.20;;
26036;SDS011;13810;48.376;10.944;2022-12-22T02:03:28;5.13;;;3.13;;
26036;SDS011;13810;48.376;10.944;2022-12-22T02:04:18;4.82;;;3.78;;
26036;SDS011;13810;48.376;10.944;2022-12-22T02:05:09;5.97;;;3.60;;
26036;SDS011;13810;48.376;10.944;2022-12-22T02:06:12;5.95;;;3.72;;
26036;SDS011;13810;48.376;10.944;2022-12-22T02:07:13;6.50;;;3.38;;
26036;SDS011;13810;48.376;10.944;2022-12-22T02:08:32;5.80;;;3.28;;
26036;SDS011;13810;48.376;10.944;2022-12-22T02:09:33;3.53;;;2.92;;
26036;SDS011;13810;48.376;10.944;2022-12-22T02:11:48;5.65;;;2.50;;
26036;SDS011;13810;48.376;10.944;2022-12-22T02:14:00;6.38;;;2.50;;
26036;SDS011;13810;48.376;10.944;2022-12-22T02:15:11;7.10;;;3.40;;
26036;SDS011;13810;48.376;10.944;2022-12-22T02:16:10;8.57;;;2.92;;
26036;SDS011;13810;48.376;10.944;2022-12-22T02:18:05;3.88;;;2.85;;
26036;SDS011;13810;48.376;10.944;2022-12-22T02:19:22;4.70;;;2.47;;
26036;SDS011;13810;48.376;10.944;2022-12-22T02:21:21;2.97;;;2.35;;
26036;SDS011;13810;48.376;10.944;2022-12-22T02:22:16;5.22;;;2.97;;
26036;SDS011;13810;48.376;10.944;2022-12-22T02:24:25;6.38;;;2.47;;
26036;SDS011;13810;48.376;10.944;2022-12-22T02:25:28;3.90;;;2.45;;
26036;SDS011;13810;48.376;10.944;2022-12-22T02:26:34;4.95;;;3.00;;
26036;SDS011;13810;48.376;10.944;2022-12-22T02:27:27;2.80;;;2.13;;
26036;SDS011;13810;48.376;10.944;2022-12-22T02:28:16;6.37;;;3.33;;
26036;SDS011;13810;48.376;10.944;2022-12-22T02:29:06;5.25;;;2.58;;
26036;SDS011;13810;48.376;10.944;2022-12-22T02:29:56;6.50;;;3.13;;
26036;SDS011;13810;48.376;10.944;2022-12-22T02:30:49;5.95;;;2.90;;
26036;SDS011;13810;48.376;10.944;2022-12-22T02:31:39;4.03;;;2.72;;
26036;SDS011;13810;48.376;10.944;2022-12-22T02:32:31;6.25;;;3.67;;
26036;SDS011;13810;48.376;10.944;2022-12-22T02:33:23;3.33;;;2.95;;
26036;SDS011;13810;48.376;10.944;2022-12-22T02:34:13;4.63;;;2.97;;
26036;SDS011;13810;48.376;10.944;2022-12-22T02:35:09;4.53;;;2.95;;
26036;SDS011;13810;48.376;10.944;2022-12-22T02:36:27;6.05;;;2.90;;
26036;SDS011;13810;48.376;10.944;2022-12-22T02:39:27;4.10;;;2.90;;
26036;SDS011;13810;48.376;10.944;2022-12-22T02:40:41;4.90;;;2.22;;
26036;SDS011;13810;48.376;10.944;2022-12-22T02:45:41;2.13;;;1.90;;
26036;SDS011;13810;48.376;10.944;2022-12-22T02:47:59;3.75;;;2.33;;
26036;SDS011;13810;48.376;10.944;2022-12-22T02:49:01;2.90;;;2.13;;
26036;SDS011;13810;48.376;10.944;2022-12-22T02:51:06;4.25;;;2.40;;
26036;SDS011;13810;48.376;10.944;2022-12-22T02:52:02;4.50;;;2.88;;
26036;SDS011;13810;48.376;10.944;2022-12-22T02:53:04;3.42;;;2.15;;
26036;SDS011;13810;48.376;10.944;2022-12-22T02:53:55;4.88;;;2.38;;
26036;SDS011;13810;48.376;10.944;2022-12-22T02:54:45;3.75;;;2.38;;
26036;SDS011;13810;48.376;10.944;2022-12-22T02:55:34;5.45;;;2.90;;
26036;SDS011;13810;48.376;10.944;2022-12-22T02:56:23;4.10;;;2.47;;
26036;SDS011;13810;48.376;10.944;2022-12-22T02:57:14;3.42;;;2.08;;
26036;SDS011;13810;48.376;10.944;2022-12-22T02:58:04;2.15;;;1.85;;
26036;SDS011;13810;48.376;10.944;2022-12-22T02:58:54;5.57;;;3.10;;
26036;SDS011;13810;48.376;10.944;2022-12-22T02:59:44;3.83;;;2.65;;
26036;SDS011;13810;48.376;10.944;2022-12-22T03:00:33;6.50;;;2.70;;
26036;SDS011;13810;48.376;10.944;2022-12-22T03:01:22;3.67;;;2.45;;
26036;SDS011;13810;48.376;10.944;2022-12-22T03:02:12;4.75;;;3.13;;
26036;SDS011;13810;48.376;10.944;2022-12-22T03:03:01;4.82;;;2.58;;
26036;SDS011;13810;48.376;10.944;2022-12-22T03:03:50;3.30;;;2.45;;
26036;SDS011;13810;48.376;10.944;2022-12-22T03:04:39;5.32;;;2.58;;
26036;SDS011;13810;48.376;10.944;2022-12-22T03:05:28;3.78;;;2.45;;
26036;SDS011;13810;48.376;10.944;2022-12-22T03:06:56;5.65;;;2.35;;
26036;SDS011;13810;48.376;10.944;2022-12-22T03:07:45;4.55;;;2.40;;
26036;SDS011;13810;48.376;10.944;2022-12-22T03:08:35;5.20;;;2.50;;
26036;SDS011;13810;48.376;10.944;2022-12-22T03:09:24;7.70;;;2.50;;
26036;SDS011;13810;48.376;10.944;2022-12-22T03:10:13;3.67;;;2.45;;
26036;SDS011;13810;48.376;10.944;2022-12-22T03:11:02;3.70;;;2.63;;
26036;SDS011;13810;48.376;10.944;2022-12-22T03:11:51;3.80;;;2.40;;
26036;SDS011;13810;48.376;10.944;2022-12-22T03:12:40;6.25;;;2.22;;
26036;SDS011;13810;48.376;10.944;2022-12-22T03:13:29;6.63;;;2.63;;
26036;SDS011;13810;48.376;10.944;2022-12-22T03:14:18;3.63;;;2.38;;
26036;SDS011;13810;48.376;10.944;2022-12-22T03:15:07;3.50;;;2.53;;
26036;SDS011;13810;48.376;10.944;2022-12-22T03:15:57;4.70;;;2.67;;
26036;SDS011;13810;48.376;10.944;2022-12-22T03:16:46;6.30;;;2.60;;
26036;SDS011;13810;48.376;10.944;2022-12-22T03:17:35;4.05;;;2.45;;
26036;SDS011;13810;48.376;10.944;2022-12-22T03:18:24;5.00;;;2.58;;
26036;SDS011;13810;48.376;10.944;2022-12-22T03:19:13;3.03;;;2.22;;
26036;SDS011;13810;48.376;10.944;2022-12-22T03:20:02;3.80;;;2.58;;
26036;SDS011;13810;48.376;10.944;2022-12-22T03:20:52;5.35;;;2.38;;
26036;SDS011;13810;48.376;10.944;2022-12-22T03:21:41;6.75;;;2.80;;
26036;SDS011;13810;48.376;10.944;2022-12-22T03:22:30;9.05;;;3.58;;
26036;SDS011;13810;48.376;10.944;2022-12-22T03:23:19;3.38;;;2.20;;
26036;SDS011;13810;48.376;10.944;2022-12-22T03:24:09;8.27;;;2.50;;
26036;SDS011;13810;48.376;10.944;2022-12-22T03:24:58;5.63;;;2.47;;
26036;SDS011;13810;48.376;10.944;2022-12-22T03:25:47;3.72;;;2.22;;
26036;SDS011;13810;48.376;10.944;2022-12-22T03:26:23;4.25;;;2.78;;
26036;SDS011;13810;48.376;10.944;2022-12-22T03:26:54;5.68;;;2.38;;
26036;SDS011;13810;48.376;10.944;2022-12-22T03:27:25;4.13;;;2.38;;
26036;SDS011;13810;48.376;10.944;2022-12-22T03:28:05;6.25;;;3.05;;
26036;SDS011;13810;48.376;10.944;2022-12-22T03:28:37;5.72;;;2.60;;
26036;SDS011;13810;48.376;10.944;2022-12-22T03:29:07;5.13;;;2.75;;
26036;SDS011;13810;48.376;10.944;2022-12-22T03:29:38;5.55;;;3.05;;
26036;SDS011;13810;48.376;10.944;2022-12-22T03:30:09;6.15;;;3.10;;
26036;SDS011;13810;48.376;10.944;2022-12-22T03:30:39;4.28;;;2.70;;
26036;SDS011;13810;48.376;10.944;2022-12-22T03:31:11;8.23;;;3.03;;
26036;SDS011;13810;48.376;10.944;2022-12-22T03:31:42;3.88;;;2.47;;
26036;SDS011;13810;48.376;10.944;2022-12-22T03:32:12;3.85;;;2.50;;
26036;SDS011;13810;48.376;10.944;2022-12-22T03:32:43;3.13;;;2.55;;
26036;SDS011;13810;48.376;10.944;2022-12-22T03:33:13;3.63;;;2.47;;
26036;SDS011;13810;48.376;10.944;2022-12-22T03:33:44;7.60;;;2.60;;
26036;SDS011;13810;48.376;10.944;2022-12-22T03:34:15;4.28;;;2.58;;
26036;SDS011;13810;48.376;10.944;2022-12-22T03:34:45;4.28;;;2.67;;
26036;SDS011;13810;48.376;10.944;2022-12-22T03:35:16;3.55;;;2.38;;
26036;SDS011;13810;48.376;10.944;2022-12-22T03:35:47;5.65;;;2.50;;
26036;SDS011;13810;48.376;10.944;2022-12-22T03:36:17;4.38;;;2.47;;
26036;SDS011;13810;48.376;10.944;2022-12-22T03:36:48;5.63;;;2.90;;
26036;SDS011;13810;48.376;10.944;2022-12-22T03:37:18;4.10;;;2.13;;
26036;SDS011;13810;48.376;10.944;2022-12-22T03:37:49;6.40;;;1.88;;
26036;SDS011;13810;48.376;10.944;2022-12-22T03:38:20;3.92;;;2.30;;
26036;SDS011;13810;48.376;10.944;2022-12-22T03:38:50;3.42;;;2.10;;
26036;SDS011;13810;48.376;10.944;2022-12-22T03:39:21;3.40;;;2.10;;
26036;SDS011;13810;48.376;10.944;2022-12-22T03:39:51;3.53;;;2.28;;
26036;SDS011;13810;48.376;10.944;2022-12-22T03:40:22;3.08;;;2.10;;
26036;SDS011;13810;48.376;10.944;2022-12-22T03:40:53;6.78;;;2.45;;
26036;SDS011;13810;48.376;10.944;2022-12-22T03:41:24;3.97;;;2.13;;
26036;SDS011;13810;48.376;10.944;2022-12-22T03:42:13;5.80;;;2.50;;
26036;SDS011;13810;48.376;10.944;2022-12-22T03:43:02;3.45;;;1.98;;
26036;SDS011;13810;48.376;10.944;2022-12-22T03:43:51;4.05;;;1.98;;
26036;SDS011;13810;48.376;10.944;2022-12-22T03:44:41;2.85;;;2.00;;
26036;SDS011;13810;48.376;10.944;2022-12-22T03:45:30;2.72;;;1.85;;
26036;SDS011;13810;48.376;10.944;2022-12-22T03:46:19;2.88;;;2.17;;
26036;SDS011;13810;48.376;10.944;2022-12-22T03:47:01;2.22;;;1.83;;
26036;SDS011;13810;48.376;10.944;2022-12-22T03:47:32;3.38;;;2.38;;
26036;SDS011;13810;48.376;10.944;2022-12-22T03:48:03;4.82;;;2.15;;
26036;SDS011;13810;48.376;10.944;2022-12-22T03:48:33;2.92;;;2.25;;
26036;SDS011;13810;48.376;10.944;2022-12-22T03:49:04;7.00;;;2.65;;
26036;SDS011;13810;48.376;10.944;2022-12-22T03:49:41;3.83;;;2.40;;
26036;SDS011;13810;48.376;10.944;2022-12-22T03:50:11;2.65;;;1.98;;
26036;SDS011;13810;48.376;10.944;2022-12-22T03:50:42;5.97;;;2.50;;
26036;SDS011;13810;48.376;10.944;2022-12-22T03:51:13;4.63;;;2.70;;
26036;SDS011;13810;48.376;10.944;2022-12-22T03:51:45;4.10;;;2.20;;
26036;SDS011;13810;48.376;10.944;2022-12-22T03:52:17;4.45;;;2.55;;
26036;SDS011;13810;48.376;10.944;2022-12-22T03:52:47;5.80;;;2.45;;
26036;SDS011;13810;48.376;10.944;2022-12-22T03:53:18;3.95;;;2.40;;
26036;SDS011;13810;48.376;10.944;2022-12-22T03:53:49;5.72;;;2.53;;
26036;SDS011;13810;48.376;10.944;2022-12-22T03:54:20;5.10;;;2.78;;
26036;SDS011;13810;48.376;10.944;2022-12-22T03:54:52;5.13;;;2.80;;
26036;SDS011;13810;48.376;10.944;2022-12-22T03:55:23;5.72;;;2.92;;
26036;SDS011;13810;48.376;10.944;2022-12-22T03:55:54;4.32;;;2.53;;
26036;SDS011;13810;48.376;10.944;2022-12-22T03:56:24;7.10;;;2.97;;
26036;SDS011;13810;48.376;10.944;2022-12-22T03:56:55;4.68;;;3.58;;
26036;SDS011;13810;48.376;10.944;2022-12-22T03:57:26;7.18;;;3.28;;
26036;SDS011;13810;48.376;10.944;2022-12-22T03:57:56;5.78;;;3.10;;
26036;SDS011;13810;48.376;10.944;2022-12-22T03:58:27;5.80;;;3.10;;
26036;SDS011;13810;48.376;10.944;2022-12-22T03:58:58;9.75;;;3.30;;
26036;SDS011;13810;48.376;10.944;2022-12-22T03:59:28;7.93;;;3.10;;
26036;SDS011;13810;48.376;10.944;2022-12-22T03:59:59;7.63;;;2.85;;
26036;SDS011;13810;48.376;10.944;2022-12-22T04:00:30;4.50;;;2.58;;
26036;SDS011;13810;48.376;10.944;2022-12-22T04:01:06;6.25;;;2.80;;
26036;SDS011;13810;48.376;10.944;2022-12-22T04:01:39;5.03;;;2.47;;
26036;SDS011;13810;48.376;10.944;2022-12-22T04:02:12;5.15;;;3.15;;
26036;SDS011;13810;48.376;10.944;2022-12-22T04:02:43;5.53;;;3.00;;
26036;SDS011;13810;48.376;10.944;2022-12-22T04:03:14;6.78;;;3.17;;
26036;SDS011;13810;48.376;10.944;2022-12-22T04:03:44;8.18;;;3.08;;
26036;SDS011;13810;48.376;10.944;2022-12-22T04:04:15;4.30;;;2.60;;
26036;SDS011;13810;48.376;10.944;2022-12-22T04:04:47;4.32;;;3.22;;
26036;SDS011;13810;48.376;10.944;2022-12-22T04:05:18;5.10;;;2.95;;
26036;SDS011;13810;48.376;10.944;2022-12-22T04:05:49;4.70;;;2.85;;
26036;SDS011;13810;48.376;10.944;2022-12-22T04:06:19;4.68;;;2.88;;
26036;SDS011;13810;48.376;10.944;2022-12-22T04:06:50;5.63;;;3.30;;
26036;SDS011;13810;48.376;10.944;2022-12-22T04:07:21;4.63;;;2.95;;
26036;SDS011;13810;48.376;10.944;2022-12-22T04:07:52;6.63;;;3.08;;
26036;SDS011;13810;48.376;10.944;2022-12-22T04:08:22;6.53;;;3.38;;
26036;SDS011;13810;48.376;10.944;2022-12-22T04:08:53;5.78;;;3.03;;
26036;SDS011;13810;48.376;10.944;2022-12-22T04:09:24;7.13;;;3.00;;
26036;SDS011;13810;48.376;10.944;2022-12-22T04:09:56;5.05;;;3.10;;
26036;SDS011;13810;48.376;10.944;2022-12-22T04:10:45;5.78;;;2.80;;
26036;SDS011;13810;48.376;10.944;2022-12-22T04:11:34;5.05;;;3.03;;
26036;SDS011;13810;48.376;10.944;2022-12-22T04:12:23;10.90;;;3.35;;
26036;SDS011;13810;48.376;10.944;2022-12-22T04:13:13;6.45;;;2.85;;
26036;SDS011;13810;48.376;10.944;2022-12-22T04:13:43;4.70;;;2.97;;
26036;SDS011;13810;48.376;10.944;2022-12-22T04:14:14;5.30;;;2.33;;
26036;SDS011;13810;48.376;10.944;2022-12-22T04:14:45;5.30;;;2.75;;
26036;SDS011;13810;48.376;10.944;2022-12-22T04:15:15;9.10;;;2.53;;
26036;SDS011;13810;48.376;10.944;2022-12-22T04:15:46;6.35;;;3.33;;
26036;SDS011;13810;48.376;10.944;2022-12-22T04:16:16;7.72;;;3.42;;
26036;SDS011;13810;48.376;10.944;2022-12-22T04:16:47;7.63;;;3.72;;
26036;SDS011;13810;48.376;10.944;2022-12-22T04:17:18;5.63;;;3.50;;
26036;SDS011;13810;48.376;10.944;2022-12-22T04:17:49;8.20;;;3.40;;
26036;SDS011;13810;48.376;10.944;2022-12-22T04:18:19;6.10;;;3.67;;
26036;SDS011;13810;48.376;10.944;2022-12-22T04:18:50;8.27;;;3.80;;
26036;SDS011;13810;48.376;10.944;2022-12-22T04:19:21;6.57;;;3.00;;
26036;SDS011;13810;48.376;10.944;2022-12-22T04:19:54;5.95;;;3.80;;
26036;SDS011;13810;48.376;10.944;2022-12-22T04:20:25;5.20;;;3.20;;
26036;SDS011;13810;48.376;10.944;2022-12-22T04:20:56;6.70;;;3.33;;
26036;SDS011;13810;48.376;10.944;2022-12-22T04:21:27;6.00;;;2.75;;
26036;SDS011;13810;48.376;10.944;2022-12-22T04:21:58;6.35;;;3.08;;
26036;SDS011;13810;48.376;10.944;2022-12-22T04:22:28;8.45;;;3.45;;
26036;SDS011;13810;48.376;10.944;2022-12-22T04:22:59;4.43;;;2.92;;
26036;SDS011;13810;48.376;10.944;2022-12-22T04:23:30;7.53;;;3.17;;
26036;SDS011;13810;48.376;10.944;2022-12-22T04:24:01;7.35;;;3.33;;
26036;SDS011;13810;48.376;10.944;2022-12-22T04:24:32;9.35;;;3.17;;
26036;SDS011;13810;48.376;10.944;2022-12-22T04:25:03;5.35;;;3.15;;
26036;SDS011;13810;48.376;10.944;2022-12-22T04:25:34;4.75;;;3.15;;
26036;SDS011;13810;48.376;10.944;2022-12-22T04:26:04;5.85;;;3.55;;
26036;SDS011;13810;48.376;10.944;2022-12-22T04:26:35;10.15;;;3.58;;
26036;SDS011;13810;48.376;10.944;2022-12-22T04:27:05;7.88;;;3.40;;
26036;SDS011;13810;48.376;10.944;2022-12-22T04:27:36;8.57;;;3.53;;
26036;SDS011;13810;48.376;10.944;2022-12-22T04:28:08;7.65;;;3.80;;
26036;SDS011;13810;48.376;10.944;2022-12-22T04:28:38;4.53;;;3.30;;
26036;SDS011;13810;48.376;10.944;2022-12-22T04:29:09;5.85;;;3.20;;
26036;SDS011;13810;48.376;10.944;2022-12-22T04:29:39;5.55;;;3.17;;
26036;SDS011;13810;48.376;10.944;2022-12-22T04:30:10;5.68;;;3.70;;
26036;SDS011;13810;48.376;10.944;2022-12-22T04:30:41;7.93;;;3.63;;
26036;SDS011;13810;48.376;10.944;2022-12-22T04:31:12;5.35;;;3.65;;
26036;SDS011;13810;48.376;10.944;2022-12-22T04:31:43;5.00;;;2.78;;
26036;SDS011;13810;48.376;10.944;2022-12-22T04:32:13;7.05;;;3.80;;
26036;SDS011;13810;48.376;10.944;2022-12-22T04:32:44;6.60;;;3.75;;
26036;SDS011;13810;48.376;10.944;2022-12-22T04:33:15;7.38;;;3.85;;
26036;SDS011;13810;48.376;10.944;2022-12-22T04:33:46;7.60;;;3.40;;
26036;SDS011;13810;48.376;10.944;2022-12-22T04:34:17;6.35;;;3.67;;
26036;SDS011;13810;48.376;10.944;2022-12-22T04:34:47;6.00;;;3.40;;
26036;SDS011;13810;48.376;10.944;2022-12-22T04:35:18;7.90;;;3.40;;
26036;SDS011;13810;48.376;10.944;2022-12-22T04:35:49;4.55;;;3.08;;
26036;SDS011;13810;48.376;10.944;2022-12-22T04:36:19;7.22;;;3.95;;
26036;SDS011;13810;48.376;10.944;2022-12-22T04:36:50;5.22;;;2.92;;
26036;SDS011;13810;48.376;10.944;2022-12-22T04:37:20;5.00;;;3.20;;
26036;SDS011;13810;48.376;10.944;2022-12-22T04:37:51;7.28;;;3.30;;
26036;SDS011;13810;48.376;10.944;2022-12-22T04:38:22;9.38;;;3.83;;
26036;SDS011;13810;48.376;10.944;2022-12-22T04:38:52;7.00;;;3.22;;
26036;SDS011;13810;48.376;10.944;2022-12-22T04:39:23;5.65;;;3.47;;
26036;SDS011;13810;48.376;10.944;2022-12-22T04:39:54;7.30;;;3.60;;